Accueil
METAR-TAF:

METAR-TAF

Aéroports :

Aéroport de Grenoble Alpes Isère

Grenoble, France

latitude: 45-22N, longitude: 005-20E, altitude: 384 m

Observation

Le bulletin a été fait il y a 29 minutes, à 10:30 UTC
Vent 11 kt de nord-ouest, variant entre ouest/nord-ouest et nord
Température 9°C
Humidité 53%
Pression 1017 hPa
Visibilité 10 km ou plus
pas de nuages en-dessous de 1500 mètres et pas de cumulonimbus.

METAR: LFLS 031030Z AUTO 32011KT 290V350 CAVOK 09/00 Q1017 NOSIG

Heure: 12:59 (10:59 UTC)

Prévision

Le bulletin a été fait il y a 2 heures et 59 minutes, à 08:00 UTC
Prévision valable du 03 à 09 UTC au 04 à 09 UTC
Vent 12 kt de nord
Visibilité 10 km ou plus
pas de nuages en-dessous de 1500 mètres et pas de cumulonimbus.
Evoluant progressivement
du 03 à 21 UTC au 03 à 23 UTC
Vent 3 kt de direction variable

TAF: LFLS 030800Z 0309/0409 35012KT CAVOK BECMG 0321/0323 VRB03KT

Observations et prévisions météorologiques de plus de 4000 aéroports (messages METAR et TAF).

Les stations disponibles sont représentées par des disques jaunes et rouges sur la carte.

Passer la souris dessus pour voir le nom de la station.

Cliquer dessus pour voir les observations et prévisions météorologiques.

Pour changer de carte: cliquez sur les boutons verts avec une croix noire pour zoomer, sur le bouton vert avec un tiret pour effectuer un zoom arrière, ou sur les flèches vertes pour les cartes adjacentes.


METAR-TAF: